createdAt,value
2018-10-05T00:00:53.062Z,18.90
2018-10-05T00:03:20.582Z,19.40
2018-10-05T00:05:48.065Z,19.60
2018-10-05T00:08:15.565Z,19.30
2018-10-05T00:10:43.128Z,18.50
2018-10-05T00:13:10.620Z,17.80
2018-10-05T00:15:38.165Z,16.90
2018-10-05T00:18:06.018Z,16.60
2018-10-05T00:20:33.565Z,16.70
2018-10-05T00:23:01.103Z,16.60
2018-10-05T00:25:28.561Z,16.40
2018-10-05T00:27:56.015Z,16.80
2018-10-05T00:30:23.478Z,16.90
2018-10-05T00:32:51.017Z,17.00
2018-10-05T00:35:18.542Z,16.70
2018-10-05T00:37:46.058Z,16.10
2018-10-05T00:40:13.451Z,15.30
2018-10-05T00:42:40.913Z,14.70
2018-10-05T00:45:08.505Z,14.30
2018-10-05T00:47:36.327Z,14.60
2018-10-05T00:50:03.954Z,15.30
2018-10-05T00:52:31.447Z,16.20
2018-10-05T00:54:58.950Z,16.90
2018-10-05T00:57:26.450Z,17.50
2018-10-05T00:59:54.040Z,17.10
2018-10-05T01:02:21.500Z,16.60
2018-10-05T01:04:48.978Z,16.20
2018-10-05T01:07:16.384Z,16.00
2018-10-05T01:09:43.902Z,16.00
2018-10-05T01:12:11.402Z,16.00
2018-10-05T01:14:38.885Z,16.10
2018-10-05T01:17:06.902Z,16.70
2018-10-05T01:19:34.891Z,16.60
2018-10-05T01:22:02.361Z,16.60
2018-10-05T01:24:29.827Z,16.80
2018-10-05T01:26:57.329Z,17.10
2018-10-05T01:29:24.954Z,17.60
2018-10-05T01:31:52.483Z,17.60
2018-10-05T01:34:19.970Z,17.30
2018-10-05T01:36:47.550Z,17.00
2018-10-05T01:39:15.084Z,16.90
2018-10-05T01:41:42.627Z,15.90
2018-10-05T01:44:10.098Z,15.30
2018-10-05T01:46:37.574Z,14.90
2018-10-05T01:49:04.995Z,15.70
2018-10-05T01:51:34.631Z,16.50
2018-10-05T01:54:03.216Z,17.30
2018-10-05T01:56:31.750Z,17.70
2018-10-05T01:58:59.235Z,17.00
2018-10-05T02:01:26.869Z,16.30
2018-10-05T02:03:54.302Z,15.80
2018-10-05T02:06:21.719Z,15.30
2018-10-05T02:08:49.426Z,14.70
2018-10-05T02:11:17.067Z,13.80
2018-10-05T02:13:44.591Z,13.10
2018-10-05T02:16:12.033Z,13.00
2018-10-05T02:18:39.527Z,13.00
2018-10-05T02:21:07.160Z,13.20
2018-10-05T02:23:34.878Z,14.00
2018-10-05T02:26:02.521Z,14.50
2018-10-05T02:28:29.994Z,15.50
2018-10-05T02:30:57.642Z,16.70
2018-10-05T02:33:25.091Z,17.40
2018-10-05T02:35:52.502Z,17.70
2018-10-05T02:38:20.245Z,17.50
2018-10-05T02:40:47.705Z,16.40
2018-10-05T02:43:15.210Z,15.40
2018-10-05T02:45:42.620Z,14.80
2018-10-05T02:48:10.245Z,14.40
2018-10-05T02:50:37.667Z,15.00
2018-10-05T02:53:05.350Z,15.90
2018-10-05T02:55:32.874Z,17.20
2018-10-05T02:58:00.488Z,18.30
2018-10-05T03:00:39.330Z,18.40
2018-10-05T03:03:06.770Z,17.70
2018-10-05T03:05:34.317Z,17.20
2018-10-05T03:08:01.775Z,16.50
2018-10-05T03:10:29.222Z,16.10
2018-10-05T03:12:56.721Z,15.90
2018-10-05T03:15:24.226Z,14.90
2018-10-05T03:17:51.642Z,14.90
2018-10-05T03:20:19.127Z,14.90
2018-10-05T03:22:46.622Z,15.10
2018-10-05T03:25:14.088Z,15.10
2018-10-05T03:27:41.579Z,15.50
2018-10-05T03:30:09.023Z,15.60
2018-10-05T03:32:36.494Z,16.70
2018-10-05T03:35:03.995Z,17.80
2018-10-05T03:37:31.662Z,18.40
2018-10-05T03:39:59.155Z,17.70
2018-10-05T03:42:26.878Z,16.60
2018-10-05T03:44:54.401Z,16.20
2018-10-05T03:47:21.871Z,15.80
2018-10-05T03:49:49.494Z,16.00
2018-10-05T03:52:17.063Z,15.80
2018-10-05T03:54:44.502Z,15.50
2018-10-05T03:57:11.938Z,14.60
2018-10-05T03:59:39.390Z,13.80
2018-10-05T04:02:06.998Z,13.90
2018-10-05T04:04:34.542Z,14.60
2018-10-05T04:07:02.008Z,15.00
2018-10-05T04:09:29.555Z,15.70
2018-10-05T04:11:57.211Z,16.30
2018-10-05T04:14:24.809Z,16.70
2018-10-05T04:16:52.371Z,17.10
2018-10-05T04:19:19.886Z,17.50
2018-10-05T04:21:47.328Z,17.40
2018-10-05T04:24:14.806Z,17.50
2018-10-05T04:26:42.405Z,17.60
2018-10-05T04:29:09.846Z,17.90
2018-10-05T04:31:37.275Z,18.10
2018-10-05T04:34:04.907Z,17.90
2018-10-05T04:36:32.342Z,17.40
2018-10-05T04:38:59.860Z,16.40
2018-10-05T04:41:27.335Z,16.50
2018-10-05T04:43:54.818Z,17.00
2018-10-05T04:46:22.319Z,17.20
2018-10-05T04:48:49.763Z,17.10
2018-10-05T04:51:17.293Z,16.90
2018-10-05T04:53:44.814Z,17.20
2018-10-05T04:56:12.318Z,17.60
2018-10-05T04:58:39.839Z,17.70
2018-10-05T05:01:07.351Z,18.10
2018-10-05T05:03:34.921Z,18.20
2018-10-05T05:06:02.429Z,17.60
2018-10-05T05:08:29.895Z,17.00
2018-10-05T05:10:58.378Z,16.20
2018-10-05T05:13:25.818Z,15.40
2018-10-05T05:15:53.264Z,14.60
2018-10-05T05:18:20.739Z,14.60
2018-10-05T05:20:48.171Z,15.20
2018-10-05T05:23:15.713Z,15.10
2018-10-05T05:25:43.327Z,14.50
2018-10-05T05:28:10.814Z,13.80
2018-10-05T05:30:38.246Z,13.00
2018-10-05T05:33:06.062Z,13.40
2018-10-05T05:35:33.509Z,14.30
2018-10-05T05:38:00.987Z,15.00
2018-10-05T05:40:28.517Z,15.10
2018-10-05T05:42:56.109Z,14.90
2018-10-05T05:45:23.562Z,15.40
2018-10-05T05:47:51.014Z,16.10
2018-10-05T05:50:18.450Z,16.40
2018-10-05T05:52:45.922Z,16.00
2018-10-05T05:55:13.422Z,15.40
2018-10-05T05:57:40.930Z,15.00
2018-10-05T06:00:08.439Z,14.20
2018-10-05T06:02:35.898Z,14.60
2018-10-05T06:05:03.429Z,14.90
2018-10-05T06:07:30.902Z,15.40
2018-10-05T06:09:58.419Z,15.00
2018-10-05T06:12:25.878Z,15.00
2018-10-05T06:14:53.440Z,15.60
2018-10-05T06:17:20.982Z,16.60
2018-10-05T06:19:48.454Z,17.20
2018-10-05T06:22:16.124Z,17.20
2018-10-05T06:24:43.483Z,17.10
2018-10-05T06:27:11.017Z,16.90
2018-10-05T06:29:38.502Z,16.60
2018-10-05T06:32:06.064Z,16.20
2018-10-05T06:34:33.518Z,16.20
2018-10-05T06:37:00.962Z,16.20
2018-10-05T06:39:28.510Z,15.90
2018-10-05T06:41:55.956Z,15.10
2018-10-05T06:44:23.390Z,15.00
2018-10-05T06:46:50.919Z,15.20
2018-10-05T06:49:18.485Z,15.20
2018-10-05T06:51:45.937Z,15.30
2018-10-05T06:54:13.479Z,15.40
2018-10-05T06:56:41.028Z,15.50
2018-10-05T06:59:08.930Z,15.70
2018-10-05T07:01:36.474Z,16.00
2018-10-05T07:04:03.917Z,16.40
2018-10-05T07:06:31.471Z,16.80
2018-10-05T07:08:58.971Z,17.00
2018-10-05T07:11:26.550Z,17.20
2018-10-05T07:13:54.061Z,17.50
2018-10-05T07:16:21.670Z,17.90
2018-10-05T07:18:49.191Z,18.40
2018-10-05T07:21:16.674Z,19.00
2018-10-05T07:23:44.096Z,19.70
2018-10-05T07:26:11.610Z,20.50
2018-10-05T07:28:39.260Z,20.60
2018-10-05T07:31:06.839Z,20.80
2018-10-05T07:33:34.303Z,20.60
2018-10-05T07:36:01.806Z,20.10
2018-10-05T07:38:29.289Z,19.20
2018-10-05T07:40:56.828Z,18.70
2018-10-05T07:43:24.295Z,18.40
2018-10-05T07:45:51.742Z,18.80
2018-10-05T07:48:19.216Z,18.70
2018-10-05T07:50:46.667Z,18.20
2018-10-05T07:53:14.174Z,18.50
2018-10-05T07:55:41.709Z,18.00
2018-10-05T07:58:09.242Z,18.30
2018-10-05T08:00:36.750Z,19.20
2018-10-05T08:03:04.189Z,19.80
2018-10-05T08:05:31.686Z,19.00
2018-10-05T08:07:59.119Z,19.20
2018-10-05T08:10:26.636Z,19.10
2018-10-05T08:12:54.133Z,18.60
2018-10-05T08:15:21.746Z,19.10
2018-10-05T08:17:49.304Z,19.70
2018-10-05T08:20:16.756Z,20.10
2018-10-05T08:22:44.242Z,20.40
2018-10-05T08:25:11.680Z,20.40
2018-10-05T08:27:39.139Z,20.00
2018-10-05T08:30:06.971Z,20.40
2018-10-05T08:32:34.576Z,20.40
2018-10-05T08:35:02.196Z,21.60
2018-10-05T08:37:29.632Z,23.70
2018-10-05T08:39:57.216Z,25.30
2018-10-05T08:42:24.634Z,26.50
2018-10-05T08:44:52.090Z,27.20
2018-10-05T08:47:19.525Z,27.40
2018-10-05T08:49:47.010Z,27.70
2018-10-05T08:52:14.464Z,27.80
2018-10-05T08:54:41.908Z,25.70
2018-10-05T08:57:09.349Z,26.10
2018-10-05T08:59:36.829Z,25.90
2018-10-05T09:02:04.265Z,24.90
2018-10-05T09:04:31.869Z,22.30
2018-10-05T09:06:59.413Z,21.00
2018-10-05T09:09:26.871Z,20.10
2018-10-05T09:11:54.468Z,19.30
2018-10-05T09:14:21.954Z,19.30
2018-10-05T09:16:49.406Z,19.40
2018-10-05T09:19:16.890Z,19.40
2018-10-05T09:21:44.445Z,19.20
2018-10-05T09:24:12.099Z,18.90
2018-10-05T09:26:39.587Z,19.30
2018-10-05T09:29:07.022Z,19.90
2018-10-05T09:31:34.583Z,19.50
2018-10-05T09:34:02.011Z,19.20
2018-10-05T09:36:29.500Z,19.40
2018-10-05T09:38:57.057Z,19.50
2018-10-05T09:41:24.518Z,19.30
2018-10-05T09:43:51.964Z,19.00
2018-10-05T09:46:19.433Z,19.00
2018-10-05T09:48:47.014Z,19.40
2018-10-05T09:51:14.537Z,19.30
2018-10-05T09:53:41.985Z,19.20
2018-10-05T09:56:09.418Z,18.80
2018-10-05T09:58:36.902Z,18.40
2018-10-05T10:01:10.224Z,18.60
2018-10-05T10:03:37.877Z,18.80
2018-10-05T10:06:06.030Z,18.90
2018-10-05T10:08:33.905Z,18.90
2018-10-05T10:11:01.367Z,18.90
2018-10-05T10:13:28.838Z,18.80
2018-10-05T10:15:56.406Z,19.10
2018-10-05T10:18:23.946Z,19.40
2018-10-05T10:20:51.431Z,19.70
2018-10-05T10:23:18.952Z,19.70
2018-10-05T10:25:46.534Z,20.10
2018-10-05T10:28:14.194Z,20.10
2018-10-05T10:30:41.757Z,19.70
2018-10-05T10:33:09.306Z,19.40
2018-10-05T10:35:36.855Z,20.00
2018-10-05T10:38:04.397Z,20.50
2018-10-05T10:40:32.010Z,20.50
2018-10-05T10:42:59.701Z,20.30
2018-10-05T10:45:27.217Z,20.70
2018-10-05T10:47:54.725Z,20.80
2018-10-05T10:50:22.172Z,21.20
2018-10-05T10:52:49.639Z,21.70
2018-10-05T10:55:17.099Z,21.70
2018-10-05T10:57:44.555Z,21.60
2018-10-05T11:00:12.525Z,22.50
2018-10-05T11:02:39.971Z,23.60
2018-10-05T11:05:07.485Z,26.20
2018-10-05T11:07:34.975Z,28.60
2018-10-05T11:10:02.517Z,31.70
2018-10-05T11:12:29.985Z,33.60
2018-10-05T11:14:57.410Z,35.30
2018-10-05T11:17:24.870Z,36.80
2018-10-05T11:19:52.348Z,37.30
2018-10-05T11:22:19.910Z,38.00
2018-10-05T11:24:47.539Z,37.90
2018-10-05T11:27:15.022Z,36.00
2018-10-05T11:29:42.565Z,32.40
2018-10-05T11:32:09.966Z,29.40
2018-10-05T11:34:37.443Z,28.20
2018-10-05T11:37:05.141Z,27.40
2018-10-05T11:39:32.602Z,26.30
2018-10-05T11:42:00.209Z,25.20
2018-10-05T11:44:27.679Z,24.50
2018-10-05T11:46:55.180Z,24.00
2018-10-05T11:49:22.652Z,23.70
2018-10-05T11:51:50.059Z,23.50
2018-10-05T11:54:17.503Z,23.30
2018-10-05T11:56:44.969Z,23.20
2018-10-05T11:59:12.431Z,23.10
2018-10-05T12:01:39.873Z,23.10
2018-10-05T12:04:07.348Z,23.10
2018-10-05T12:06:34.860Z,22.90
2018-10-05T12:09:02.869Z,22.80
2018-10-05T12:11:30.430Z,23.20
2018-10-05T12:13:57.854Z,23.60
2018-10-05T12:16:25.357Z,24.30
2018-10-05T12:18:52.912Z,24.80
2018-10-05T12:21:20.431Z,24.60
2018-10-05T12:23:48.057Z,24.40
2018-10-05T12:26:15.594Z,24.20
2018-10-05T12:28:43.030Z,24.10
2018-10-05T12:31:10.510Z,24.00
2018-10-05T12:33:38.093Z,23.80
2018-10-05T12:36:05.804Z,23.20
2018-10-05T12:38:33.557Z,23.60
2018-10-05T12:41:01.006Z,23.70
2018-10-05T12:43:28.487Z,23.70
2018-10-05T12:45:55.915Z,23.80
2018-10-05T12:48:23.385Z,23.90
2018-10-05T12:50:50.851Z,24.40
2018-10-05T12:53:18.388Z,24.30
2018-10-05T12:55:47.972Z,24.10
2018-10-05T12:58:15.481Z,23.90
2018-10-05T13:00:42.895Z,23.80
2018-10-05T13:03:10.357Z,23.50
2018-10-05T13:05:37.797Z,23.50
2018-10-05T13:08:05.599Z,23.50
2018-10-05T13:10:33.082Z,23.30
2018-10-05T13:13:00.788Z,23.30
2018-10-05T13:15:28.267Z,23.40
2018-10-05T13:17:55.746Z,23.50
2018-10-05T13:20:23.232Z,23.70
2018-10-05T13:22:50.681Z,23.90
2018-10-05T13:25:18.090Z,25.60
2018-10-05T13:27:45.569Z,29.50
2018-10-05T13:30:13.074Z,32.20
2018-10-05T13:32:40.587Z,33.70
2018-10-05T13:35:08.149Z,34.70
2018-10-05T13:37:35.625Z,34.70
2018-10-05T13:40:03.111Z,34.40
2018-10-05T13:42:30.606Z,34.90
2018-10-05T13:44:58.050Z,35.30
2018-10-05T13:47:25.588Z,35.20
2018-10-05T13:49:53.059Z,35.40
2018-10-05T13:52:20.498Z,35.50
2018-10-05T13:54:48.063Z,35.70
2018-10-05T13:57:15.514Z,35.60
2018-10-05T13:59:42.986Z,35.20
2018-10-05T14:02:10.421Z,34.60
2018-10-05T14:04:37.943Z,34.80
2018-10-05T14:07:05.688Z,34.70
2018-10-05T14:09:33.146Z,33.80
2018-10-05T14:12:00.633Z,30.80
2018-10-05T14:14:28.087Z,28.60
2018-10-05T14:16:55.530Z,27.10
2018-10-05T14:19:23.006Z,26.20
2018-10-05T14:21:50.553Z,25.70
2018-10-05T14:24:17.989Z,25.30
2018-10-05T14:26:45.488Z,25.10
2018-10-05T14:29:12.932Z,24.90
2018-10-05T14:31:40.420Z,24.60
2018-10-05T14:34:07.906Z,24.20
2018-10-05T14:36:35.421Z,24.20
2018-10-05T14:39:03.303Z,24.20
2018-10-05T14:41:30.796Z,24.10
2018-10-05T14:43:58.266Z,24.10
2018-10-05T14:46:25.785Z,23.90
2018-10-05T14:48:53.295Z,23.60
2018-10-05T14:51:20.757Z,23.60
2018-10-05T14:53:48.217Z,23.70
2018-10-05T14:56:15.686Z,23.70
2018-10-05T14:58:43.152Z,23.60
2018-10-05T15:01:10.641Z,23.60
2018-10-05T15:03:38.106Z,23.60
2018-10-05T15:06:05.597Z,23.60
2018-10-05T15:08:33.074Z,23.50
2018-10-05T15:11:00.545Z,23.10
2018-10-05T15:13:27.992Z,23.10
2018-10-05T15:15:55.449Z,23.20
2018-10-05T15:18:22.913Z,23.30
2018-10-05T15:20:50.368Z,23.30
2018-10-05T15:23:17.826Z,23.20
2018-10-05T15:25:45.346Z,23.20
2018-10-05T15:28:13.338Z,23.20
2018-10-05T15:30:40.834Z,23.20
2018-10-05T15:33:08.397Z,23.20
2018-10-05T15:35:35.987Z,23.10
2018-10-05T15:38:03.467Z,22.80
2018-10-05T15:40:30.919Z,22.80
2018-10-05T15:42:58.506Z,22.70
2018-10-05T15:45:26.082Z,22.70
2018-10-05T15:47:53.671Z,22.70
2018-10-05T15:50:21.144Z,22.50
2018-10-05T15:52:48.733Z,22.20
2018-10-05T15:55:16.150Z,22.10
2018-10-05T15:57:43.626Z,22.30
2018-10-05T16:00:11.113Z,22.50
2018-10-05T16:02:38.634Z,22.50
2018-10-05T16:05:06.165Z,22.20
2018-10-05T16:07:33.719Z,22.20
2018-10-05T16:10:01.214Z,22.30
2018-10-05T16:12:28.765Z,21.90
2018-10-05T16:14:56.298Z,22.00
2018-10-05T16:17:23.798Z,22.00
2018-10-05T16:19:51.342Z,21.90
2018-10-05T16:22:18.923Z,21.80
2018-10-05T16:24:46.611Z,21.40
2018-10-05T16:27:14.260Z,21.20
2018-10-05T16:29:41.866Z,21.00
2018-10-05T16:32:10.158Z,20.80
2018-10-05T16:34:37.720Z,20.50
2018-10-05T16:37:05.605Z,20.20
2018-10-05T16:39:33.236Z,20.20
2018-10-05T16:42:00.966Z,20.20
2018-10-05T16:44:28.423Z,20.40
2018-10-05T16:46:56.042Z,20.80
2018-10-05T16:49:23.484Z,20.90
2018-10-05T16:51:50.941Z,20.50
2018-10-05T16:54:18.457Z,20.10
2018-10-05T16:56:45.963Z,20.00
2018-10-05T16:59:13.574Z,20.50
2018-10-05T17:01:41.114Z,20.80
2018-10-05T17:04:08.666Z,21.00
2018-10-05T17:06:36.143Z,21.20
2018-10-05T17:09:06.702Z,21.20
2018-10-05T17:11:35.080Z,21.40
2018-10-05T17:14:03.417Z,21.50
2018-10-05T17:16:31.171Z,21.60
2018-10-05T17:18:58.659Z,21.60
2018-10-05T17:21:26.138Z,21.50
2018-10-05T17:23:53.741Z,20.80
2018-10-05T17:26:21.270Z,20.20
2018-10-05T17:28:48.726Z,19.90
2018-10-05T17:31:16.222Z,19.60
2018-10-05T17:33:43.774Z,19.60
2018-10-05T17:36:11.320Z,19.90
2018-10-05T17:38:38.912Z,20.00
2018-10-05T17:41:06.745Z,20.30
2018-10-05T17:43:34.270Z,20.60
2018-10-05T17:46:01.775Z,20.80
2018-10-05T17:48:29.323Z,21.00
2018-10-05T17:50:56.762Z,21.20
2018-10-05T17:53:24.438Z,21.20
2018-10-05T17:55:52.222Z,21.10
2018-10-05T17:58:19.681Z,21.20
2018-10-05T18:00:47.145Z,21.00
2018-10-05T18:03:14.595Z,20.90
2018-10-05T18:05:42.065Z,20.90
2018-10-05T18:08:09.518Z,21.00
2018-10-05T18:10:36.938Z,21.00
2018-10-05T18:13:04.491Z,21.00
2018-10-05T18:15:31.989Z,20.90
2018-10-05T18:17:59.826Z,21.00
2018-10-05T18:20:27.364Z,20.90
2018-10-05T18:22:54.802Z,20.60
2018-10-05T18:25:22.294Z,20.20
2018-10-05T18:27:49.836Z,19.50
2018-10-05T18:30:17.307Z,19.50
2018-10-05T18:32:44.798Z,19.90
2018-10-05T18:35:12.287Z,20.30
2018-10-05T18:37:39.826Z,19.70
2018-10-05T18:40:08.466Z,19.20
2018-10-05T18:42:36.006Z,19.00
2018-10-05T18:45:04.001Z,18.70
2018-10-05T18:47:31.510Z,19.00
2018-10-05T18:49:59.079Z,19.50
2018-10-05T18:52:26.857Z,19.80
2018-10-05T18:54:54.394Z,19.80
2018-10-05T18:57:23.039Z,19.70
2018-10-05T18:59:51.707Z,19.60
2018-10-05T19:02:19.834Z,19.50
2018-10-05T19:04:47.955Z,19.60
2018-10-05T19:07:15.451Z,19.70
2018-10-05T19:09:42.979Z,19.40
2018-10-05T19:12:10.737Z,19.70
2018-10-05T19:14:38.293Z,20.00
2018-10-05T19:17:05.870Z,19.80
2018-10-05T19:19:33.555Z,20.00
2018-10-05T19:22:01.158Z,20.20
2018-10-05T19:24:28.974Z,20.00
2018-10-05T19:26:56.781Z,19.50
2018-10-05T19:29:24.391Z,18.90
2018-10-05T19:31:51.913Z,18.70
2018-10-05T19:34:19.401Z,18.80
2018-10-05T19:36:46.936Z,18.60
2018-10-05T19:39:14.445Z,19.10
2018-10-05T19:41:41.953Z,19.20
2018-10-05T19:44:09.959Z,18.90
2018-10-05T19:46:37.546Z,18.70
2018-10-05T19:49:05.074Z,18.10
2018-10-05T19:51:32.571Z,18.00
2018-10-05T19:54:00.079Z,17.90
2018-10-05T19:56:27.659Z,18.30
2018-10-05T19:58:55.107Z,18.90
2018-10-05T20:01:23.277Z,19.10
2018-10-05T20:03:50.768Z,19.30
2018-10-05T20:06:18.505Z,19.60
2018-10-05T20:08:46.127Z,19.20
2018-10-05T20:11:13.854Z,18.70
2018-10-05T20:13:41.330Z,18.00
2018-10-05T20:16:09.109Z,17.60
2018-10-05T20:18:36.659Z,17.70
2018-10-05T20:21:04.146Z,18.20
2018-10-05T20:23:31.714Z,18.40
2018-10-05T20:25:59.194Z,18.40
2018-10-05T20:28:26.716Z,18.60
2018-10-05T20:30:54.235Z,18.90
2018-10-05T20:33:21.736Z,19.30
2018-10-05T20:35:49.360Z,19.40
2018-10-05T20:38:16.905Z,19.40
2018-10-05T20:40:44.458Z,19.00
2018-10-05T20:43:12.068Z,18.50
2018-10-05T20:45:39.614Z,18.70
2018-10-05T20:48:07.106Z,18.90
2018-10-05T20:50:34.599Z,19.20
2018-10-05T20:53:02.266Z,19.60
2018-10-05T20:55:29.738Z,19.80
2018-10-05T20:57:57.293Z,20.20
2018-10-05T21:00:24.750Z,20.50
2018-10-05T21:02:52.269Z,20.80
2018-10-05T21:05:19.750Z,20.90
2018-10-05T21:07:47.221Z,20.90
2018-10-05T21:10:14.714Z,21.00
2018-10-05T21:12:42.337Z,21.10
2018-10-05T21:15:09.925Z,21.20
2018-10-05T21:17:37.652Z,21.30
2018-10-05T21:20:05.269Z,21.20
2018-10-05T21:22:32.762Z,21.20
2018-10-05T21:25:00.265Z,21.30
2018-10-05T21:27:27.791Z,21.30
2018-10-05T21:29:55.240Z,21.40
2018-10-05T21:32:22.715Z,21.50
2018-10-05T21:34:50.310Z,20.90
2018-10-05T21:37:17.818Z,19.90
2018-10-05T21:39:45.347Z,19.50
2018-10-05T21:42:13.038Z,19.40
2018-10-05T21:44:40.554Z,19.50
2018-10-05T21:47:07.995Z,19.30
2018-10-05T21:49:35.474Z,18.90
2018-10-05T21:52:02.944Z,18.70
2018-10-05T21:54:30.462Z,18.90
2018-10-05T21:56:57.945Z,19.30
2018-10-05T21:59:25.415Z,19.30
2018-10-05T22:01:52.901Z,19.20
2018-10-05T22:04:20.446Z,18.80
2018-10-05T22:06:47.914Z,18.40
2018-10-05T22:09:15.366Z,18.20
2018-10-05T22:11:42.883Z,18.30
2018-10-05T22:14:10.349Z,18.70
2018-10-05T22:16:37.818Z,19.40
2018-10-05T22:19:05.508Z,19.80
2018-10-05T22:21:33.080Z,20.10
2018-10-05T22:24:01.059Z,20.50
2018-10-05T22:26:28.620Z,20.70
2018-10-05T22:28:56.069Z,20.90
2018-10-05T22:31:24.283Z,20.90
2018-10-05T22:33:51.741Z,21.00
2018-10-05T22:36:19.206Z,21.00
2018-10-05T22:38:46.673Z,21.10
2018-10-05T22:41:14.171Z,21.20
2018-10-05T22:43:41.654Z,21.00
2018-10-05T22:46:09.126Z,19.90
2018-10-05T22:48:36.617Z,19.40
2018-10-05T22:51:05.143Z,19.60
2018-10-05T22:53:32.627Z,20.00
2018-10-05T22:56:00.062Z,20.30
2018-10-05T22:58:27.504Z,20.50
2018-10-05T23:00:54.965Z,20.70
2018-10-05T23:03:22.658Z,20.40
2018-10-05T23:05:50.106Z,19.70
2018-10-05T23:08:17.618Z,19.60
2018-10-05T23:10:45.046Z,19.60
2018-10-05T23:13:12.570Z,20.00
2018-10-05T23:15:40.817Z,20.40
2018-10-05T23:18:08.297Z,20.50
2018-10-05T23:20:36.742Z,20.70
2018-10-05T23:23:04.302Z,20.80
2018-10-05T23:25:32.593Z,20.90
2018-10-05T23:28:00.041Z,20.90
2018-10-05T23:30:27.526Z,20.90
2018-10-05T23:32:54.965Z,20.80
2018-10-05T23:35:22.547Z,20.90
2018-10-05T23:37:49.987Z,21.00
2018-10-05T23:40:17.462Z,21.10
2018-10-05T23:42:45.086Z,21.10
2018-10-05T23:45:12.609Z,20.90
2018-10-05T23:47:40.034Z,20.00
2018-10-05T23:50:07.526Z,19.30
2018-10-05T23:52:45.137Z,19.10
2018-10-05T23:55:12.731Z,19.30
2018-10-05T23:57:40.610Z,19.60
